Аэропорт: Хомутово. Южно-Сахалинск

ICAO: UHSS

METAR:
2018/09/23 11:00
UHSS 231100Z 36002MPS 2200 -SHRA BR SCT014CB BKN029CB 11/11 Q1016 R01/250160 NOSIG RMK MT OBSC QFE761/1015
METAR:
2018/09/23 09:22
TAF UHSS 230800Z 2309/2415 10003MPS 9999 BKN015CB OVC100 
      TEMPO 2309/2312 5000 -SHRA BR 
      BECMG 2400/2403 18006MPS 
      TEMPO 2403/2415 3100 -SHRA BR BKN005 BKN015CB